Time;durP1;ratioP1;P1;durP2;ratioP2;P2;SDS_P1;SDS_P2;PMS_P1;PMS_P2;Temp;Humidity;BMP_temperature;BMP_pressure;BME280_temperature;BME280_humidity;BME280_pressure;Samples;Min_cycle;Max_cycle;Signal;HPM_P1;HPM_P2
2023/05/08 00:00:37;;;;;;;19.45;12.73;;;12.80;99.90;;;;;;5067458;28;20045;-71
2023/05/08 00:03:04;;;;;;;15.18;11.80;;;12.80;99.90;;;;;;5005389;28;218479;-71
2023/05/08 00:05:30;;;;;;;17.25;12.95;;;12.70;99.90;;;;;;5049643;28;20052;-72
2023/05/08 00:08:00;;;;;;;16.05;11.98;;;12.70;99.90;;;;;;5056433;28;213879;-72
2023/05/08 00:10:27;;;;;;;16.00;11.95;;;12.70;99.90;;;;;;5006246;28;20052;-71
2023/05/08 00:12:54;;;;;;;16.55;12.02;;;12.70;99.90;;;;;;5044332;28;222757;-72
2023/05/08 00:15:21;;;;;;;16.20;12.38;;;12.70;99.90;;;;;;5009006;28;167408;-72
2023/05/08 00:17:47;;;;;;;18.60;13.40;;;12.70;99.90;;;;;;5066002;28;20056;-70
2023/05/08 00:20:13;;;;;;;19.25;12.95;;;12.60;99.90;;;;;;5015163;28;211843;-73
2023/05/08 00:22:39;;;;;;;16.30;13.23;;;12.60;99.90;;;;;;5072023;28;20079;-71
2023/05/08 00:25:05;;;;;;;16.50;13.40;;;12.60;99.90;;;;;;4990912;28;214623;-71
2023/05/08 00:27:32;;;;;;;18.13;13.63;;;12.60;99.90;;;;;;5075535;28;20056;-71
2023/05/08 00:29:58;;;;;;;17.48;13.00;;;12.60;99.90;;;;;;4981217;28;210969;-72
2023/05/08 00:32:24;;;;;;;19.48;13.27;;;12.60;99.90;;;;;;5051003;28;20053;-71
2023/05/08 00:34:50;;;;;;;16.65;12.68;;;12.60;99.90;;;;;;4970236;28;1078878;-71
2023/05/08 00:37:16;;;;;;;16.20;13.50;;;12.60;99.90;;;;;;5055460;28;20435;-72
2023/05/08 00:39:42;;;;;;;16.85;13.57;;;12.60;99.90;;;;;;5027369;28;219710;-72
2023/05/08 00:42:08;;;;;;;17.48;14.20;;;12.60;99.90;;;;;;5055715;28;20048;-72
2023/05/08 00:44:34;;;;;;;16.63;13.15;;;12.50;99.90;;;;;;4996667;28;218319;-73
2023/05/08 00:47:01;;;;;;;18.75;14.23;;;12.50;99.90;;;;;;5045329;28;20056;-71
2023/05/08 00:49:27;;;;;;;18.05;14.00;;;12.50;99.90;;;;;;5009756;28;208734;-72
2023/05/08 00:51:55;;;;;;;17.55;13.82;;;12.50;99.90;;;;;;5063066;28;20753;-71
2023/05/08 00:54:22;;;;;;;18.08;13.73;;;12.50;99.90;;;;;;5005857;28;214344;-71
2023/05/08 00:56:49;;;;;;;19.83;14.05;;;12.50;99.90;;;;;;5053857;28;20056;-72
2023/05/08 00:59:16;;;;;;;17.08;14.00;;;12.50;99.90;;;;;;4980963;28;216749;-70
2023/05/08 01:01:43;;;;;;;17.88;14.40;;;12.40;99.90;;;;;;5060929;28;20489;-72
2023/05/08 01:04:09;;;;;;;17.23;13.55;;;12.30;99.90;;;;;;4996680;28;210097;-72
2023/05/08 01:06:36;;;;;;;18.20;14.57;;;12.30;99.90;;;;;;5057552;28;20040;-71
2023/05/08 01:09:02;;;;;;;17.33;13.88;;;12.20;99.90;;;;;;5007022;28;215163;-70
2023/05/08 01:11:43;;;;;;;17.10;13.80;;;12.20;99.90;;;;;;5050044;28;20053;-72
2023/05/08 01:14:53;;;;;;;17.30;13.98;;;12.20;99.90;;;;;;5019804;28;212754;-72
2023/05/08 01:17:55;;;;;;;19.23;13.90;;;12.10;99.90;;;;;;5061008;28;20059;-72
2023/05/08 01:20:32;;;;;;;;;;;12.00;99.90;;;;;;4981894;28;125530;-72
2023/05/08 01:23:16;;;;;;;17.95;14.00;;;11.90;99.90;;;;;;5015356;28;215819;-72
2023/05/08 01:26:02;;;;;;;19.02;13.85;;;11.80;99.90;;;;;;5045063;28;20057;-70
2023/05/08 01:28:31;;;;;;;18.40;14.15;;;11.80;99.90;;;;;;4984844;28;206248;-72
2023/05/08 01:30:59;;;;;;;19.33;13.52;;;11.70;99.90;;;;;;5076259;28;20059;-71
2023/05/08 01:33:55;;;;;;;17.98;13.98;;;11.70;99.90;;;;;;5011302;28;223777;-72
2023/05/08 01:36:47;;;;;;;18.33;13.55;;;11.60;99.90;;;;;;5077886;28;20063;-70
2023/05/08 01:39:37;;;;;;;17.55;14.48;;;11.60;99.90;;;;;;5011937;28;216623;-72
2023/05/08 01:42:37;;;;;;;19.27;15.25;;;11.50;99.90;;;;;;5077368;28;20514;-72
2023/05/08 01:45:11;;;;;;;18.13;14.07;;;11.50;99.90;;;;;;5017633;28;219324;-72
2023/05/08 01:47:37;;;;;;;18.00;14.40;;;11.40;99.90;;;;;;5073016;28;20048;-72
2023/05/08 01:50:11;;;;;;;17.55;14.57;;;11.40;99.90;;;;;;5011125;28;209221;-74
2023/05/08 01:52:51;;;;;;;20.70;14.32;;;11.40;99.90;;;;;;5072305;28;20060;-71
2023/05/08 01:55:27;;;;;;;19.33;14.80;;;11.40;99.90;;;;;;5018063;28;214516;-71
2023/05/08 01:57:56;;;;;;;19.35;14.95;;;11.30;99.90;;;;;;5063528;28;219917;-72
2023/05/08 02:00:24;;;;;;;19.00;15.05;;;11.20;99.90;;;;;;5018633;28;145487;-71
2023/05/08 02:02:53;;;;;;;18.23;14.82;;;11.20;99.90;;;;;;5075103;28;20048;-72
2023/05/08 02:05:21;;;;;;;21.10;15.52;;;11.20;99.90;;;;;;5014073;28;207877;-72
2023/05/08 02:07:49;;;;;;;18.10;14.30;;;11.20;99.90;;;;;;5073013;28;20063;-71
2023/05/08 02:10:17;;;;;;;19.95;15.05;;;11.10;99.90;;;;;;4999881;28;207072;-70
2023/05/08 02:12:45;;;;;;;19.08;15.38;;;11.10;99.90;;;;;;5076224;28;20060;-72
2023/05/08 02:15:14;;;;;;;21.02;15.13;;;11.10;99.90;;;;;;5019065;28;217492;-72
2023/05/08 02:17:40;;;;;;;19.10;15.05;;;11.00;99.90;;;;;;5080011;28;20130;-72
2023/05/08 02:20:13;;;;;;;22.73;15.05;;;11.00;99.90;;;;;;4970788;28;213263;-72
2023/05/08 02:22:49;;;;;;;19.45;16.17;;;10.90;99.90;;;;;;5075577;28;20059;-71
2023/05/08 02:25:17;;;;;;;19.08;15.77;;;10.90;99.90;;;;;;5010103;28;216408;-70
2023/05/08 02:27:46;;;;;;;19.70;15.48;;;10.90;99.90;;;;;;5073273;28;20423;-73
2023/05/08 02:30:14;;;;;;;19.92;15.57;;;10.90;99.90;;;;;;5003641;28;207743;-72
2023/05/08 02:32:43;;;;;;;21.38;16.23;;;10.80;99.90;;;;;;5075065;28;20056;-72
2023/05/08 02:35:14;;;;;;;21.00;16.17;;;10.80;99.90;;;;;;4991206;28;213153;-72
2023/05/08 02:37:42;;;;;;;20.00;15.90;;;10.80;99.90;;;;;;5082606;28;20141;-71
2023/05/08 02:40:11;;;;;;;19.50;16.00;;;10.70;99.90;;;;;;5027110;28;211463;-71
2023/05/08 02:42:38;;;;;;;21.05;16.17;;;10.70;99.90;;;;;;5079234;28;20071;-71
2023/05/08 02:45:04;;;;;;;22.70;17.00;;;10.70;99.90;;;;;;5016251;28;215096;-72
2023/05/08 02:47:41;;;;;;;21.88;15.95;;;10.70;99.90;;;;;;5075423;28;20048;-71
2023/05/08 02:50:36;;;;;;;21.02;16.15;;;10.70;99.90;;;;;;4984519;28;209181;-71
2023/05/08 02:53:07;;;;;;;20.52;16.60;;;10.70;99.90;;;;;;4989286;28;213503;-70
2023/05/08 02:55:43;;;;;;;20.80;16.35;;;10.60;99.90;;;;;;5031050;28;20052;-71
2023/05/08 02:58:33;;;;;;;19.70;16.00;;;10.60;99.90;;;;;;4984515;28;216450;-71
2023/05/08 03:01:07;;;;;;;19.88;16.50;;;10.60;99.90;;;;;;5057883;28;20049;-71
2023/05/08 03:03:43;;;;;;;20.95;16.52;;;10.50;99.90;;;;;;5012848;28;163426;-72
2023/05/08 03:06:12;;;;;;;21.75;16.27;;;10.50;99.90;;;;;;5067383;28;20052;-72
2023/05/08 03:08:40;;;;;;;21.00;16.20;;;10.50;99.90;;;;;;5004928;28;171903;-72
2023/05/08 03:11:23;;;;;;;22.65;17.73;;;10.50;99.90;;;;;;5058623;28;20869;-72
2023/05/08 03:13:52;;;;;;;20.05;16.17;;;10.50;99.90;;;;;;4996374;28;218216;-71
2023/05/08 03:16:23;;;;;;;20.75;16.40;;;10.40;99.90;;;;;;5045766;28;20052;-72
2023/05/08 03:18:57;;;;;;;20.85;16.27;;;10.40;99.90;;;;;;4994996;28;209871;-71
2023/05/08 03:21:27;;;;;;;19.48;15.60;;;10.40;99.90;;;;;;5045758;28;20048;-71
2023/05/08 03:23:55;;;;;;;21.38;16.08;;;10.40;99.90;;;;;;5000407;28;202458;-71
2023/05/08 03:26:22;;;;;;;19.85;16.35;;;10.30;99.90;;;;;;5051409;28;20526;-72
2023/05/08 03:28:49;;;;;;;20.25;16.65;;;10.30;99.90;;;;;;5003385;28;234395;-71
2023/05/08 03:31:20;;;;;;;19.65;16.23;;;10.30;99.90;;;;;;5043925;28;20065;-72
2023/05/08 03:33:47;;;;;;;19.48;15.85;;;10.30;99.90;;;;;;5001805;28;209278;-71
2023/05/08 03:36:15;;;;;;;20.80;16.55;;;10.30;99.90;;;;;;5049126;28;20048;-71
2023/05/08 03:38:41;;;;;;;20.75;16.10;;;10.20;99.90;;;;;;4997585;28;215825;-71
2023/05/08 03:41:08;;;;;;;20.88;16.17;;;10.20;99.90;;;;;;5069147;28;20064;-72
2023/05/08 03:43:36;;;;;;;21.33;16.20;;;10.20;99.90;;;;;;5012647;28;210792;-71
2023/05/08 03:46:05;;;;;;;21.30;16.10;;;10.20;99.90;;;;;;5068990;28;20052;-72
2023/05/08 03:48:33;;;;;;;20.00;16.00;;;10.20;99.90;;;;;;5018189;28;213071;-72
2023/05/08 03:51:04;;;;;;;20.88;17.25;;;10.20;99.90;;;;;;5068656;28;20056;-71
2023/05/08 03:53:31;;;;;;;20.77;16.33;;;10.10;99.90;;;;;;5018238;28;209405;-71
2023/05/08 03:55:58;;;;;;;20.90;16.27;;;10.10;99.90;;;;;;5049676;28;20061;-71
2023/05/08 03:58:51;;;;;;;20.63;16.35;;;10.10;99.90;;;;;;5006917;28;209139;-71
2023/05/08 04:01:42;;;;;;;19.25;16.38;;;10.10;99.90;;;;;;5070269;28;20104;-71
2023/05/08 04:04:29;;;;;;;20.45;15.75;;;10.10;99.90;;;;;;5007629;28;213877;-71
2023/05/08 04:07:18;;;;;;;19.13;15.23;;;10.10;99.90;;;;;;5068984;28;20063;-70
2023/05/08 04:10:08;;;;;;;20.50;15.70;;;10.10;99.90;;;;;;4985952;28;209718;-70
2023/05/08 04:12:52;;;;;;;22.77;15.25;;;10.00;99.90;;;;;;5063155;28;20047;-71
2023/05/08 04:15:21;;;;;;;20.65;15.70;;;10.00;99.90;;;;;;4995234;28;253167;-71
2023/05/08 04:18:09;;;;;;;19.38;15.00;;;10.10;99.90;;;;;;5072315;28;20043;-72
2023/05/08 04:20:39;;;;;;;20.15;15.65;;;10.10;99.90;;;;;;4992769;28;75974;-72
2023/05/08 04:23:07;;;;;;;23.27;15.77;;;10.10;99.90;;;;;;5023530;28;208138;-72
2023/05/08 04:25:37;;;;;;;19.30;15.30;;;10.10;99.90;;;;;;5080245;28;20052;-71
2023/05/08 04:28:04;;;;;;;20.00;14.93;;;10.20;99.90;;;;;;5007137;28;228548;-71
2023/05/08 04:30:30;;;;;;;20.63;15.65;;;10.10;99.90;;;;;;5059823;28;20044;-71
2023/05/08 04:32:58;;;;;;;18.63;15.07;;;10.20;99.90;;;;;;5032398;28;229702;-73
2023/05/08 04:35:24;;;;;;;17.55;14.10;;;10.20;99.90;;;;;;5033194;28;254794;-71
2023/05/08 04:37:51;;;;;;;21.15;14.70;;;10.30;99.90;;;;;;5079001;28;20067;-70
2023/05/08 04:40:17;;;;;;;17.77;14.70;;;10.30;99.90;;;;;;5010099;28;211049;-70
2023/05/08 04:42:45;;;;;;;18.83;14.57;;;10.30;99.90;;;;;;5061800;28;20586;-71
2023/05/08 04:45:12;;;;;;;18.63;15.15;;;10.40;99.90;;;;;;5025635;28;216174;-71
2023/05/08 04:47:38;;;;;;;17.70;14.23;;;10.40;99.90;;;;;;5074457;28;20058;-71
2023/05/08 04:50:05;;;;;;;20.42;14.45;;;10.40;99.90;;;;;;5012308;28;236116;-71
2023/05/08 04:52:31;;;;;;;18.63;14.27;;;10.50;99.90;;;;;;5091187;28;20060;-70
2023/05/08 04:54:57;;;;;;;17.77;14.52;;;10.50;99.90;;;;;;5006254;28;212736;-70
2023/05/08 04:57:23;;;;;;;19.17;13.88;;;10.60;99.90;;;;;;5074204;28;20481;-71
2023/05/08 04:59:49;;;;;;;18.20;14.48;;;10.60;99.90;;;;;;4984657;28;224427;-71
2023/05/08 05:02:15;;;;;;;16.77;13.15;;;10.60;99.90;;;;;;5081167;28;20048;-71
2023/05/08 05:04:41;;;;;;;17.33;13.77;;;10.70;99.90;;;;;;5021846;28;210401;-69
2023/05/08 05:07:08;;;;;;;16.85;14.18;;;10.70;99.90;;;;;;5077570;28;20044;-70
2023/05/08 05:09:35;;;;;;;16.67;13.70;;;10.80;99.90;;;;;;5013193;28;211049;-70
2023/05/08 05:12:03;;;;;;;18.70;13.38;;;10.80;99.90;;;;;;5070932;28;20053;-70
2023/05/08 05:14:29;;;;;;;17.73;13.30;;;10.90;99.90;;;;;;5004452;28;213353;-71
2023/05/08 05:16:55;;;;;;;16.35;12.68;;;11.00;99.90;;;;;;5063731;28;20051;-72
2023/05/08 05:19:21;;;;;;;16.08;13.18;;;11.10;99.90;;;;;;5018577;28;217064;-72
2023/05/08 05:21:47;;;;;;;16.83;12.63;;;11.20;99.90;;;;;;5079497;28;20053;-72
2023/05/08 05:24:13;;;;;;;16.38;12.40;;;11.40;99.90;;;;;;5004312;28;226168;-70
2023/05/08 05:26:40;;;;;;;15.30;11.98;;;11.60;99.90;;;;;;5067567;28;20053;-72
2023/05/08 05:29:06;;;;;;;17.08;11.43;;;11.90;99.90;;;;;;5019016;28;208346;-69
2023/05/08 05:31:32;;;;;;;15.15;11.68;;;12.20;99.90;;;;;;5074895;28;20060;-70
2023/05/08 05:33:58;;;;;;;13.77;10.80;;;12.40;99.90;;;;;;5020605;28;212701;-71
2023/05/08 05:36:24;;;;;;;14.55;11.13;;;12.60;99.90;;;;;;5042855;28;20059;-71
2023/05/08 05:38:50;;;;;;;15.63;10.88;;;12.80;99.90;;;;;;4999795;28;207715;-70
2023/05/08 05:41:16;;;;;;;14.35;10.13;;;13.00;99.90;;;;;;5055656;28;20044;-71
2023/05/08 05:43:43;;;;;;;14.43;10.63;;;13.20;99.90;;;;;;5007363;28;214916;-71
2023/05/08 05:46:09;;;;;;;13.32;9.52;;;13.50;99.90;;;;;;5068872;28;20056;-69
2023/05/08 05:48:35;;;;;;;12.65;9.82;;;13.80;99.90;;;;;;5017084;28;250327;-71
2023/05/08 05:51:02;;;;;;;13.55;10.30;;;14.00;99.90;;;;;;5077969;28;20489;-71
2023/05/08 05:53:28;;;;;;;13.65;9.15;;;14.30;99.90;;;;;;5020194;28;211679;-70
2023/05/08 05:55:54;;;;;;;14.52;9.63;;;14.50;99.90;;;;;;5082024;28;20056;-72
2023/05/08 05:58:20;;;;;;;12.70;9.15;;;14.70;99.90;;;;;;5009591;28;225314;-71
2023/05/08 06:00:47;;;;;;;13.45;8.88;;;14.90;99.90;;;;;;5081520;28;20045;-71
2023/05/08 06:03:13;;;;;;;13.93;10.27;;;15.10;99.90;;;;;;5018833;28;210366;-70
2023/05/08 06:05:39;;;;;;;13.57;9.18;;;15.30;99.90;;;;;;5060810;28;20051;-70
2023/05/08 06:08:07;;;;;;;12.45;9.07;;;15.50;99.90;;;;;;5008582;28;209196;-70
2023/05/08 06:10:33;;;;;;;14.10;9.32;;;15.70;99.90;;;;;;5077346;28;20601;-70
2023/05/08 06:12:59;;;;;;;14.60;8.90;;;16.00;99.90;;;;;;5027397;28;221852;-71
2023/05/08 06:15:26;;;;;;;13.45;8.40;;;16.30;99.90;;;;;;5056506;28;20071;-72
2023/05/08 06:17:52;;;;;;;12.93;8.25;;;16.40;99.90;;;;;;5075847;28;20043;-72
2023/05/08 06:20:19;;;;;;;13.10;8.13;;;16.40;99.90;;;;;;4980559;28;148235;-72
2023/05/08 06:22:45;;;;;;;11.15;8.43;;;16.50;99.90;;;;;;5074615;28;20051;-71
2023/05/08 06:25:11;;;;;;;11.50;8.68;;;16.70;99.90;;;;;;4982691;28;208853;-72
2023/05/08 06:27:37;;;;;;;12.40;8.13;;;16.80;99.90;;;;;;5073407;28;20419;-71
2023/05/08 06:30:07;;;;;;;12.05;7.28;;;17.10;99.90;;;;;;5005663;28;212590;-72
2023/05/08 06:32:33;;;;;;;14.23;7.88;;;17.60;99.90;;;;;;5071423;28;20045;-72
2023/05/08 06:34:59;;;;;;;11.27;7.63;;;17.90;99.90;;;;;;5013700;28;210739;-72
2023/05/08 06:37:25;;;;;;;11.55;7.50;;;18.20;99.90;;;;;;5076562;28;20052;-71
2023/05/08 06:39:51;;;;;;;12.05;8.05;;;18.20;99.90;;;;;;5021106;28;221619;-72
2023/05/08 06:42:17;;;;;;;11.27;7.40;;;18.00;99.90;;;;;;5079984;28;20052;-72
2023/05/08 06:44:43;;;;;;;11.00;7.22;;;18.40;99.90;;;;;;5009051;28;224875;-71
2023/05/08 06:47:09;;;;;;;10.70;6.82;;;18.90;99.90;;;;;;5070144;28;20056;-71
2023/05/08 06:49:36;;;;;;;10.13;7.05;;;19.30;99.90;;;;;;5025237;28;213443;-71
2023/05/08 06:52:02;;;;;;;10.25;6.82;;;19.40;99.90;;;;;;5075451;28;20075;-71
2023/05/08 06:54:28;;;;;;;9.80;6.95;;;19.20;99.90;;;;;;5019381;28;210931;-71
2023/05/08 06:56:54;;;;;;;10.25;7.07;;;19.20;99.90;;;;;;5076098;28;20060;-72
2023/05/08 06:59:22;;;;;;;10.40;7.25;;;19.10;99.90;;;;;;4992005;28;208954;-70
2023/05/08 07:01:48;;;;;;;11.25;7.50;;;18.90;99.90;;;;;;5064311;28;20064;-71
2023/05/08 07:04:14;;;;;;;11.70;7.18;;;18.40;99.90;;;;;;5002978;28;212641;-70
2023/05/08 07:06:40;;;;;;;10.18;6.75;;;18.20;99.90;;;;;;5063899;28;20055;-72
2023/05/08 07:09:07;;;;;;;10.70;7.25;;;18.10;99.90;;;;;;5008893;28;217028;-70
2023/05/08 07:11:33;;;;;;;10.50;7.32;;;18.00;99.90;;;;;;5068127;28;20063;-70
2023/05/08 07:13:59;;;;;;;11.25;7.65;;;17.90;99.90;;;;;;5011843;28;219764;-71
2023/05/08 07:16:25;;;;;;;10.75;7.57;;;17.90;99.90;;;;;;5058769;28;20534;-71
2023/05/08 07:18:51;;;;;;;11.80;7.90;;;17.80;99.90;;;;;;4998589;28;209178;-71
2023/05/08 07:21:19;;;;;;;11.07;7.63;;;17.70;99.90;;;;;;5061796;28;20053;-71
2023/05/08 07:23:46;;;;;;;10.75;7.40;;;17.70;99.90;;;;;;5013105;28;208921;-71
2023/05/08 07:26:13;;;;;;;10.73;7.53;;;17.60;99.90;;;;;;5043705;28;20553;-70
2023/05/08 07:28:39;;;;;;;11.93;7.82;;;17.60;99.90;;;;;;4985266;28;211415;-71
2023/05/08 07:31:08;;;;;;;12.55;8.18;;;17.50;99.90;;;;;;5049802;28;20053;-70
2023/05/08 07:33:34;;;;;;;13.57;8.27;;;17.50;99.90;;;;;;4994294;28;156359;-70
2023/05/08 07:36:01;;;;;;;12.70;8.55;;;17.30;99.90;;;;;;5033889;28;20733;-70
2023/05/08 07:38:27;;;;;;;11.68;8.25;;;17.20;99.90;;;;;;5001629;28;212468;-69
2023/05/08 07:40:55;;;;;;;12.13;8.57;;;17.00;99.90;;;;;;5065578;28;20059;-71
2023/05/08 07:43:23;;;;;;;11.93;8.65;;;17.00;99.90;;;;;;5018531;28;212577;-70
2023/05/08 07:45:49;;;;;;;11.70;8.43;;;17.10;99.90;;;;;;5072717;28;20288;-71
2023/05/08 07:48:15;;;;;;;13.27;8.97;;;17.10;99.90;;;;;;5006717;28;217407;-70
2023/05/08 07:50:41;;;;;;;12.73;8.73;;;17.20;99.90;;;;;;5078914;28;20055;-70
2023/05/08 07:53:07;;;;;;;11.90;8.27;;;17.40;99.90;;;;;;5016510;28;215719;-71
2023/05/08 07:55:35;;;;;;;11.27;8.30;;;17.50;99.90;;;;;;5062418;28;20499;-69
2023/05/08 07:58:01;;;;;;;14.35;8.20;;;17.40;99.90;;;;;;5022396;28;213922;-70
2023/05/08 08:00:28;;;;;;;11.65;8.48;;;17.60;99.90;;;;;;5040854;28;117257;-69
2023/05/08 08:02:54;;;;;;;13.80;8.68;;;17.70;99.90;;;;;;5059325;28;218650;-69
2023/05/08 08:05:20;;;;;;;12.05;8.07;;;17.90;99.90;;;;;;5004102;28;186525;-70
2023/05/08 08:07:47;;;;;;;12.15;8.90;;;18.00;99.90;;;;;;5072813;28;20044;-69
2023/05/08 08:10:13;;;;;;;11.80;8.35;;;18.20;99.90;;;;;;4991420;28;213257;-69
2023/05/08 08:12:39;;;;;;;12.00;8.15;;;18.30;99.90;;;;;;5076355;28;20047;-69
2023/05/08 08:15:06;;;;;;;12.40;7.68;;;18.40;99.90;;;;;;5013869;28;207963;-70
2023/05/08 08:17:32;;;;;;;12.63;8.38;;;18.50;99.90;;;;;;5065813;28;20060;-69
2023/05/08 08:19:58;;;;;;;13.90;8.48;;;18.50;99.90;;;;;;5020541;28;211096;-70
2023/05/08 08:22:25;;;;;;;11.95;8.60;;;18.60;99.90;;;;;;5070992;28;20058;-70
2023/05/08 08:24:53;;;;;;;13.18;9.05;;;19.00;99.90;;;;;;5018420;28;211094;-70
2023/05/08 08:27:19;;;;;;;10.88;8.00;;;19.90;99.90;;;;;;5066305;28;20059;-69
2023/05/08 08:29:46;;;;;;;12.68;7.75;;;20.90;99.90;;;;;;4989305;28;210420;-70
2023/05/08 08:32:12;;;;;;;12.85;8.10;;;21.50;99.90;;;;;;5070660;28;20052;-70
2023/05/08 08:34:38;;;;;;;10.60;7.13;;;22.40;99.90;;;;;;5016101;28;223348;-70
2023/05/08 08:37:05;;;;;;;10.57;7.13;;;23.10;99.50;;;;;;5082840;28;20060;-70
2023/05/08 08:39:35;;;;;;;12.30;7.32;;;23.10;98.60;;;;;;5009504;28;214609;-71
2023/05/08 08:42:02;;;;;;;13.13;7.80;;;23.00;98.40;;;;;;5073915;28;20057;-71
2023/05/08 08:44:29;;;;;;;11.70;6.88;;;23.00;97.90;;;;;;5021838;28;216221;-70
2023/05/08 08:46:57;;;;;;;10.90;7.68;;;23.10;97.60;;;;;;5072547;28;20056;-70
2023/05/08 08:49:32;;;;;;;13.68;7.07;;;23.00;97.40;;;;;;5012308;28;209974;-70
2023/05/08 08:52:02;;;;;;;10.15;6.85;;;22.90;96.70;;;;;;5055531;28;20061;-70
2023/05/08 08:54:32;;;;;;;10.97;7.40;;;23.00;97.70;;;;;;5022643;28;209623;-70
2023/05/08 08:57:03;;;;;;;9.90;7.15;;;23.40;97.50;;;;;;5082349;28;20048;-70
2023/05/08 08:59:31;;;;;;;10.82;6.70;;;23.60;97.10;;;;;;4979884;28;211212;-71
2023/05/08 09:02:03;;;;;;;11.13;6.70;;;23.60;96.80;;;;;;5057926;28;20056;-70
2023/05/08 09:04:30;;;;;;;13.63;7.15;;;23.80;96.70;;;;;;5005151;28;216101;-69
2023/05/08 09:06:57;;;;;;;10.88;6.95;;;24.10;96.60;;;;;;5080115;28;20438;-70
2023/05/08 09:09:24;;;;;;;10.98;7.53;;;24.30;96.50;;;;;;5000853;28;210404;-71
2023/05/08 09:11:51;;;;;;;10.23;6.68;;;24.70;95.90;;;;;;5063380;28;20083;-70
2023/05/08 09:14:17;;;;;;;10.32;7.10;;;25.00;94.50;;;;;;5028951;28;158551;-69
2023/05/08 09:16:47;;;;;;;12.13;7.18;;;25.20;95.30;;;;;;5075035;28;20044;-71
2023/05/08 09:19:20;;;;;;;10.88;6.13;;;25.40;94.70;;;;;;5039259;28;222515;-70
2023/05/08 09:21:48;;;;;;;10.98;6.57;;;26.10;94.70;;;;;;5073267;28;20060;-71
2023/05/08 09:24:14;;;;;;;11.10;6.47;;;26.60;94.10;;;;;;4995858;28;211563;-71
2023/05/08 09:26:41;;;;;;;10.30;6.68;;;26.50;94.20;;;;;;5057450;28;20049;-69
2023/05/08 09:29:14;;;;;;;11.20;6.28;;;27.00;94.10;;;;;;4997248;28;210499;-70
2023/05/08 09:31:46;;;;;;;9.55;6.00;;;27.90;93.60;;;;;;5055168;28;20087;-69
2023/05/08 09:34:27;;;;;;;11.43;6.75;;;28.60;93.80;;;;;;5011420;28;213486;-70
2023/05/08 09:36:54;;;;;;;10.93;6.82;;;29.40;91.60;;;;;;5062249;28;20087;-70
2023/05/08 09:39:24;;;;;;;10.07;5.80;;;29.40;92.00;;;;;;4992262;28;212754;-70
2023/05/08 09:42:02;;;;;;;12.50;6.50;;;29.80;92.60;;;;;;5067591;28;20048;-70
2023/05/08 09:44:41;;;;;;;11.05;6.68;;;30.40;92.10;;;;;;5020270;28;221957;-69
2023/05/08 09:47:22;;;;;;;9.27;6.28;;;30.60;91.30;;;;;;5071600;28;20059;-70
2023/05/08 09:50:01;;;;;;;9.85;6.68;;;30.60;90.60;;;;;;4997884;28;210656;-69
2023/05/08 09:52:29;;;;;;;9.50;6.53;;;30.90;90.30;;;;;;5075930;28;20051;-70
2023/05/08 09:55:10;;;;;;;10.30;7.05;;;31.30;90.40;;;;;;4995349;28;212335;-70
2023/05/08 09:57:38;;;;;;;12.88;6.65;;;31.40;89.00;;;;;;5073984;28;20052;-71
2023/05/08 10:00:10;;;;;;;11.02;6.78;;;31.50;89.50;;;;;;4987298;28;252269;-71
2023/05/08 10:02:37;;;;;;;11.60;7.65;;;31.70;88.50;;;;;;5074988;28;20063;-69
2023/05/08 10:05:20;;;;;;;10.23;6.97;;;31.00;88.30;;;;;;5004055;28;217341;-70
2023/05/08 10:07:47;;;;;;;10.40;6.57;;;30.20;88.60;;;;;;5075023;28;20430;-70
2023/05/08 10:10:13;;;;;;;9.98;6.80;;;29.20;89.60;;;;;;5003743;28;207654;-70
2023/05/08 10:12:40;;;;;;;11.60;7.10;;;28.80;89.00;;;;;;5075167;28;20059;-71
2023/05/08 10:15:07;;;;;;;12.02;7.65;;;28.80;89.20;;;;;;5019922;28;216184;-71
2023/05/08 10:17:55;;;;;;;10.32;7.10;;;29.30;89.80;;;;;;5076571;28;20056;-70
2023/05/08 10:20:25;;;;;;;11.52;7.20;;;30.20;86.80;;;;;;4997929;28;29418;-70
2023/05/08 10:22:54;;;;;;;11.15;7.47;;;30.00;89.30;;;;;;5070942;28;20470;-71
2023/05/08 10:25:22;;;;;;;13.48;7.00;;;29.90;88.70;;;;;;4990770;28;161226;-71
2023/05/08 10:28:23;;;;;;;10.18;6.45;;;30.10;88.10;;;;;;5053963;28;20052;-71
2023/05/08 10:30:50;;;;;;;12.25;7.43;;;30.20;88.40;;;;;;5002577;28;106098;-71
2023/05/08 10:33:20;;;;;;;11.98;7.15;;;30.50;87.70;;;;;;5003722;28;213029;-72
2023/05/08 10:35:47;;;;;;;10.38;6.93;;;30.90;88.70;;;;;;5064452;28;20127;-72
2023/05/08 10:38:15;;;;;;;10.30;7.20;;;31.10;87.50;;;;;;5021995;28;212892;-72
2023/05/08 10:40:41;;;;;;;10.95;7.38;;;31.30;86.40;;;;;;5069330;28;20039;-73
2023/05/08 10:43:10;;;;;;;13.55;7.68;;;31.40;87.00;;;;;;5015142;28;220289;-72
2023/05/08 10:45:37;;;;;;;10.18;6.30;;;31.70;86.00;;;;;;5070175;28;20044;-72
2023/05/08 10:48:03;;;;;;;9.83;6.50;;;31.90;87.10;;;;;;5033740;28;212380;-72
2023/05/08 10:50:55;;;;;;;13.07;6.95;;;31.90;86.30;;;;;;5041352;28;20040;-71
2023/05/08 10:53:47;;;;;;;11.70;6.53;;;30.80;84.00;;;;;;5008838;28;212308;-72
2023/05/08 10:56:13;;;;;;;12.27;6.72;;;30.30;86.40;;;;;;5063949;28;20442;-71
2023/05/08 10:58:40;;;;;;;11.95;7.90;;;30.70;88.50;;;;;;5002930;28;218707;-72
2023/05/08 11:01:06;;;;;;;11.40;7.05;;;31.10;86.90;;;;;;5073652;28;20054;-70
2023/05/08 11:03:54;;;;;;;10.13;6.93;;;31.60;86.10;;;;;;5007600;28;211047;-71
2023/05/08 11:06:43;;;;;;;11.65;7.20;;;31.30;86.00;;;;;;5069318;28;20055;-70
2023/05/08 11:09:18;;;;;;;11.32;7.28;;;31.30;85.50;;;;;;4999006;28;222143;-70
2023/05/08 11:11:55;;;;;;;10.73;6.72;;;31.50;86.10;;;;;;5064169;28;20051;-70
2023/05/08 11:14:22;;;;;;;10.02;6.57;;;32.00;86.00;;;;;;5006543;28;240808;-70
2023/05/08 11:16:55;;;;;;;10.05;7.25;;;32.50;86.90;;;;;;5068552;28;20059;-69
2023/05/08 11:19:23;;;;;;;10.82;7.70;;;31.90;85.50;;;;;;5016673;28;212172;-69
2023/05/08 11:22:24;;;;;;;10.50;6.43;;;32.20;85.20;;;;;;5070669;28;20044;-70
2023/05/08 11:25:01;;;;;;;10.15;6.00;;;32.80;84.60;;;;;;5027454;27;221211;-69
2023/05/08 11:27:31;;;;;;;10.02;5.95;;;32.50;82.70;;;;;;5073280;28;20071;-70
2023/05/08 11:30:19;;;;;;;9.50;5.72;;;31.80;84.30;;;;;;5003453;28;211634;-69
2023/05/08 11:33:15;;;;;;;10.30;6.30;;;32.00;81.50;;;;;;5077882;28;20758;-68
2023/05/08 11:35:53;;;;;;;8.55;5.28;;;32.30;83.30;;;;;;5002476;28;94123;-68
2023/05/08 11:38:24;;;;;;;8.68;4.97;;;32.40;84.10;;;;;;5016602;28;219838;-68
2023/05/08 11:41:03;;;;;;;9.90;4.88;;;32.60;82.30;;;;;;5051583;28;21293;-69
2023/05/08 11:43:32;;;;;;;10.47;5.63;;;32.70;81.30;;;;;;5016137;28;210385;-69
2023/05/08 11:46:04;;;;;;;10.73;7.33;;;32.70;82.20;;;;;;5062301;28;20051;-69
2023/05/08 11:48:31;;;;;;;11.73;7.03;;;33.20;82.80;;;;;;5004124;28;211437;-71
2023/05/08 11:51:02;;;;;;;12.68;8.65;;;33.30;81.90;;;;;;5045918;28;20404;-69
2023/05/08 11:53:30;;;;;;;11.35;8.20;;;32.60;82.60;;;;;;5000070;28;224186;-69
2023/05/08 11:55:57;;;;;;;11.77;6.78;;;32.50;82.40;;;;;;5060876;28;20067;-69
2023/05/08 11:58:23;;;;;;;9.48;6.68;;;32.40;82.60;;;;;;4990720;28;218584;-69
2023/05/08 12:00:49;;;;;;;11.10;6.50;;;32.30;82.10;;;;;;5059058;28;20425;-68
2023/05/08 12:03:17;;;;;;;10.00;6.50;;;31.30;81.90;;;;;;5011148;28;217864;-69
2023/05/08 12:05:44;;;;;;;11.60;7.35;;;30.40;81.80;;;;;;5055574;28;20701;-68
2023/05/08 12:08:12;;;;;;;11.18;7.28;;;29.40;83.80;;;;;;5003289;28;218412;-69
2023/05/08 12:10:45;;;;;;;10.98;7.45;;;29.60;85.00;;;;;;5055254;28;20048;-69
2023/05/08 12:13:23;;;;;;;12.02;7.63;;;29.80;84.30;;;;;;5015369;28;214159;-69
2023/05/08 12:15:54;;;;;;;10.00;7.22;;;29.60;84.30;;;;;;5072911;28;20051;-69
2023/05/08 12:18:22;;;;;;;12.38;8.38;;;29.80;86.60;;;;;;5005841;28;213597;-69
2023/05/08 12:20:53;;;;;;;13.63;8.40;;;30.40;85.70;;;;;;5061110;28;20045;-69
2023/05/08 12:23:19;;;;;;;13.15;8.25;;;30.30;84.30;;;;;;5011870;28;217574;-68
2023/05/08 12:25:45;;;;;;;14.35;8.40;;;30.10;84.00;;;;;;5063967;28;20048;-68
2023/05/08 12:28:12;;;;;;;13.77;8.25;;;29.90;85.60;;;;;;5013449;28;208415;-68
2023/05/08 12:30:38;;;;;;;12.25;6.68;;;30.20;86.10;;;;;;5043217;28;20047;-67
2023/05/08 12:33:05;;;;;;;11.02;7.35;;;29.90;83.70;;;;;;5015065;28;212815;-67
2023/05/08 12:35:31;;;;;;;12.35;7.70;;;28.60;83.50;;;;;;5064573;28;20510;-67
2023/05/08 12:38:02;;;;;;;11.85;7.40;;;27.90;84.80;;;;;;5053387;28;214228;-68
2023/05/08 12:40:32;;;;;;;10.77;7.15;;;27.90;85.50;;;;;;5042419;28;20226;-67
2023/05/08 12:43:02;;;;;;;;;;;27.90;85.80;;;;;;5037450;28;212772;-67